createdAt,value
2023-04-11T00:02:46.220Z,100492.11
2023-04-11T00:07:47.921Z,100482.09
2023-04-11T00:12:49.392Z,100477.99
2023-04-11T00:17:50.900Z,100469.57
2023-04-11T00:22:53.459Z,100462.73
2023-04-11T00:27:55.037Z,100461.79
2023-04-11T00:32:56.523Z,100459.09
2023-04-11T00:37:58.184Z,100452.89
2023-04-11T00:42:59.958Z,100447.02
2023-04-11T00:48:01.985Z,100438.38
2023-04-11T00:53:03.707Z,100428.02
2023-04-11T00:58:06.851Z,100418.75
2023-04-11T01:03:08.725Z,100419.14
2023-04-11T01:08:11.236Z,100414.48
2023-04-11T01:13:12.768Z,100402.35
2023-04-11T01:18:14.951Z,100394.91
2023-04-11T01:23:23.897Z,100391.65
2023-04-11T01:28:25.675Z,100390.86
2023-04-11T01:33:27.352Z,100388.46
2023-04-11T01:38:29.038Z,100377.89
2023-04-11T01:43:30.594Z,100370.95
2023-04-11T01:48:33.774Z,100358.77
2023-04-11T01:53:35.270Z,100356.27
2023-04-11T01:58:36.756Z,100348.70
2023-04-11T02:03:39.012Z,100343.21
2023-04-11T02:08:40.606Z,100338.32
2023-04-11T02:13:42.093Z,100329.98
2023-04-11T02:18:45.075Z,100329.66
2023-04-11T02:23:46.549Z,100327.94
2023-04-11T02:28:48.023Z,100330.58
2023-04-11T02:33:49.613Z,100327.17
2023-04-11T02:38:51.075Z,100322.52
2023-04-11T02:43:53.506Z,100318.55
2023-04-11T02:48:55.548Z,100308.72
2023-04-11T02:53:57.234Z,100300.00
2023-04-11T02:58:58.986Z,100292.85
2023-04-11T03:04:00.924Z,100286.92
2023-04-11T03:09:03.429Z,100276.67
2023-04-11T03:14:05.037Z,100267.28
2023-04-11T03:19:06.715Z,100274.92
2023-04-11T03:24:08.386Z,100271.46
2023-04-11T03:29:09.860Z,100271.40
2023-04-11T03:34:11.347Z,100258.67
2023-04-11T03:39:12.799Z,100256.83
2023-04-11T03:44:14.800Z,100247.84
2023-04-11T03:49:16.250Z,100233.99
2023-04-11T03:54:17.729Z,100227.94
2023-04-11T03:59:19.399Z,100219.86
2023-04-11T04:04:21.036Z,100218.63
2023-04-11T04:09:23.626Z,100210.38
2023-04-11T04:14:25.139Z,100208.10
2023-04-11T04:19:26.628Z,100209.59
2023-04-11T04:24:28.991Z,100210.61
2023-04-11T04:29:37.428Z,100211.77
2023-04-11T04:34:46.380Z,100206.46
2023-04-11T04:39:50.523Z,100208.41
2023-04-11T04:44:53.625Z,100207.48
2023-04-11T04:49:56.006Z,100208.51
2023-04-11T04:54:57.924Z,100208.58
2023-04-11T04:59:59.459Z,100208.17
2023-04-11T05:05:03.493Z,100207.27
2023-04-11T05:10:05.743Z,100205.91
2023-04-11T05:15:10.978Z,100201.34
2023-04-11T05:20:13.021Z,100198.52
2023-04-11T05:25:14.515Z,100195.77
2023-04-11T05:30:16.258Z,100181.68
2023-04-11T05:35:17.686Z,100177.36
2023-04-11T05:40:19.202Z,100173.04
2023-04-11T05:45:20.671Z,100167.92
2023-04-11T05:50:22.353Z,100164.16
2023-04-11T05:55:23.814Z,100155.06
2023-04-11T06:00:27.930Z,100146.50
2023-04-11T06:05:30.852Z,100146.52
2023-04-11T06:10:32.523Z,100144.62
2023-04-11T06:15:34.175Z,100142.93
2023-04-11T06:20:35.768Z,100138.12
2023-04-11T06:25:38.073Z,100139.58
2023-04-11T06:30:41.785Z,100134.27
2023-04-11T06:35:44.758Z,100129.23
2023-04-11T06:40:49.019Z,100128.65
2023-04-11T06:45:52.265Z,100126.33
2023-04-11T06:50:55.138Z,100116.71
2023-04-11T06:55:59.882Z,100108.27
2023-04-11T07:01:02.801Z,100103.23
2023-04-11T07:06:07.550Z,100098.09
2023-04-11T07:11:10.643Z,100093.44
2023-04-11T07:16:13.494Z,100087.65
2023-04-11T07:21:16.352Z,100081.89
2023-04-11T07:26:19.256Z,100079.20
2023-04-11T07:31:23.047Z,100073.20
2023-04-11T07:36:29.055Z,100058.70
2023-04-11T07:41:31.902Z,100056.48
2023-04-11T07:46:34.791Z,100043.80
2023-04-11T07:51:37.857Z,100032.03
2023-04-11T07:56:41.061Z,100023.30
2023-04-11T08:01:43.900Z,100018.52
2023-04-11T08:06:46.854Z,100015.34
2023-04-11T08:11:49.784Z,100006.02
2023-04-11T08:16:53.274Z,99997.97
2023-04-11T08:21:56.582Z,99986.02
2023-04-11T08:26:59.837Z,99979.50
2023-04-11T08:32:03.040Z,99981.70
2023-04-11T08:37:05.846Z,99979.90
2023-04-11T08:42:21.348Z,99979.83
2023-04-11T08:47:24.693Z,99967.16
2023-04-11T08:52:28.936Z,99964.97
2023-04-11T08:57:31.928Z,99959.30
2023-04-11T09:02:35.221Z,99956.04
2023-04-11T09:07:50.437Z,99950.98
2023-04-11T09:12:54.427Z,99944.72
2023-04-11T09:18:00.596Z,99942.92
2023-04-11T09:23:03.951Z,99938.59
2023-04-11T09:28:10.920Z,99933.28
2023-04-11T09:33:24.951Z,99924.06
2023-04-11T09:38:29.334Z,99919.08
2023-04-11T09:43:53.826Z,99907.07
2023-04-11T09:48:57.581Z,99903.42
2023-04-11T09:54:02.306Z,99892.11
2023-04-11T09:59:05.673Z,99891.00
2023-04-11T10:04:11.145Z,99882.65
2023-04-11T10:09:16.117Z,99878.32
2023-04-11T10:14:38.949Z,99870.63
2023-04-11T10:19:43.816Z,99867.19
2023-04-11T10:25:19.032Z,99854.80
2023-04-11T10:30:40.303Z,99848.02
2023-04-11T10:36:12.437Z,99849.43
2023-04-11T10:41:18.992Z,99841.01
2023-04-11T10:46:23.731Z,99832.45
2023-04-11T10:51:28.211Z,99825.05
2023-04-11T10:56:40.364Z,99821.02
2023-04-11T11:01:57.189Z,99812.67
2023-04-11T11:07:04.513Z,99800.91
2023-04-11T11:12:15.566Z,99800.21
2023-04-11T11:17:18.485Z,99791.82
2023-04-11T11:22:28.711Z,99786.40
2023-04-11T11:27:31.745Z,99783.23
2023-04-11T11:32:34.769Z,99783.84
2023-04-11T11:37:38.029Z,99773.59
2023-04-11T11:42:41.724Z,99773.30
2023-04-11T11:47:47.175Z,99763.48
2023-04-11T11:52:51.452Z,99754.76
2023-04-11T11:57:54.399Z,99756.56
2023-04-11T12:02:59.761Z,99749.95
2023-04-11T12:08:05.362Z,99745.98
2023-04-11T12:13:36.382Z,99745.05
2023-04-11T12:18:42.345Z,99742.23
2023-04-11T12:23:45.772Z,99737.14
2023-04-11T12:28:50.324Z,99734.02
2023-04-11T12:33:53.325Z,99724.88
2023-04-11T12:38:56.958Z,99717.71
2023-04-11T12:44:02.586Z,99718.08
2023-04-11T12:49:06.333Z,99716.27
2023-04-11T12:54:09.233Z,99708.98
2023-04-11T12:59:12.140Z,99702.80
2023-04-11T13:04:15.492Z,99692.45
2023-04-11T13:09:18.766Z,99689.35
2023-04-11T13:14:21.673Z,99683.09
2023-04-11T13:19:24.881Z,99674.64
2023-04-11T13:24:27.903Z,99671.28
2023-04-11T13:29:30.798Z,99670.52
2023-04-11T13:34:34.278Z,99664.17
2023-04-11T13:39:37.111Z,99655.95
2023-04-11T13:44:40.020Z,99653.48
2023-04-11T13:49:42.920Z,99649.67
2023-04-11T13:54:46.039Z,99644.81
2023-04-11T13:59:48.916Z,99639.27
2023-04-11T14:04:52.273Z,99635.77
2023-04-11T14:09:54.995Z,99631.05
2023-04-11T14:14:57.851Z,99632.23
2023-04-11T14:20:01.058Z,99624.73
2023-04-11T14:25:06.925Z,99627.66
2023-04-11T14:30:12.274Z,99622.14
2023-04-11T14:35:15.707Z,99611.98
2023-04-11T14:40:18.601Z,99612.03
2023-04-11T14:45:21.438Z,99612.63
2023-04-11T14:50:25.048Z,99611.73
2023-04-11T14:55:28.935Z,99605.56
2023-04-11T15:00:37.934Z,99602.88
2023-04-11T15:05:51.695Z,99596.70
2023-04-11T15:10:54.844Z,99582.08
2023-04-11T15:16:04.428Z,99579.86
2023-04-11T15:21:07.905Z,99576.94
2023-04-11T15:26:11.368Z,99564.52
2023-04-11T15:31:25.377Z,99559.01
2023-04-11T15:36:29.078Z,99559.90
2023-04-11T15:41:32.153Z,99553.81
2023-04-11T15:46:34.990Z,99551.96
2023-04-11T15:51:38.368Z,99549.37
2023-04-11T15:56:41.274Z,99544.58
2023-04-11T16:01:46.160Z,99543.14
2023-04-11T16:06:49.337Z,99540.26
2023-04-11T16:11:52.235Z,99534.96
2023-04-11T16:16:55.940Z,99538.67
2023-04-11T16:21:58.866Z,99541.67
2023-04-11T16:27:02.902Z,99541.26
2023-04-11T16:32:06.450Z,99538.55
2023-04-11T16:37:09.520Z,99538.88
2023-04-11T16:42:12.223Z,99534.02
2023-04-11T16:47:15.101Z,99535.27
2023-04-11T16:52:18.131Z,99535.23
2023-04-11T16:57:20.932Z,99531.08
2023-04-11T17:02:23.917Z,99524.32
2023-04-11T17:07:28.582Z,99526.83
2023-04-11T17:12:31.941Z,99526.77
2023-04-11T17:17:34.907Z,99533.36
2023-04-11T17:22:41.462Z,99528.97
2023-04-11T17:27:44.392Z,99531.68
2023-04-11T17:32:48.804Z,99538.52
2023-04-11T17:37:52.364Z,99546.04
2023-04-11T17:42:57.708Z,99547.14
2023-04-11T17:48:01.453Z,99549.19
2023-04-11T17:53:05.069Z,99556.85
2023-04-11T17:58:08.071Z,99559.02
2023-04-11T18:03:11.651Z,99563.36
2023-04-11T18:08:14.854Z,99565.21
2023-04-11T18:13:17.696Z,99568.56
2023-04-11T18:18:20.597Z,99571.11
2023-04-11T18:23:23.604Z,99567.58
2023-04-11T18:28:26.405Z,99572.63
2023-04-11T18:33:29.466Z,99570.39
2023-04-11T18:38:32.417Z,99575.87
2023-04-11T18:43:35.651Z,99576.53
2023-04-11T18:48:38.595Z,99576.44
2023-04-11T18:53:41.945Z,99575.77
2023-04-11T18:58:46.657Z,99577.02
2023-04-11T19:03:54.748Z,99573.52
2023-04-11T19:08:58.028Z,99569.18
2023-04-11T19:14:01.555Z,99573.66
2023-04-11T19:19:04.454Z,99571.04
2023-04-11T19:24:08.602Z,99569.06
2023-04-11T19:29:11.788Z,99569.64
2023-04-11T19:34:15.512Z,99573.63
2023-04-11T19:39:18.928Z,99579.21
2023-04-11T19:44:22.461Z,99593.42
2023-04-11T19:49:25.359Z,99592.73
2023-04-11T19:54:28.246Z,99595.98
2023-04-11T19:59:31.061Z,99592.59
2023-04-11T20:04:33.968Z,99596.45
2023-04-11T20:09:36.859Z,99598.94
2023-04-11T20:14:39.869Z,99604.33
2023-04-11T20:19:44.514Z,99604.55
2023-04-11T20:24:48.220Z,99609.08
2023-04-11T20:29:50.973Z,99613.94
2023-04-11T20:34:53.973Z,99610.56
2023-04-11T20:39:57.734Z,99608.08
2023-04-11T20:45:10.137Z,99608.54
2023-04-11T20:50:14.625Z,99603.77
2023-04-11T20:55:18.251Z,99612.21
2023-04-11T21:00:21.152Z,99613.34
2023-04-11T21:05:25.225Z,99617.14
2023-04-11T21:10:28.293Z,99614.70
2023-04-11T21:15:31.341Z,99611.10
2023-04-11T21:20:34.712Z,99611.08
2023-04-11T21:25:38.140Z,99611.01
2023-04-11T21:30:42.670Z,99614.02
2023-04-11T21:35:45.697Z,99616.41
2023-04-11T21:40:48.683Z,99619.84
2023-04-11T21:45:51.486Z,99623.89
2023-04-11T21:50:54.805Z,99632.38
2023-04-11T21:55:57.710Z,99632.20
2023-04-11T22:01:01.891Z,99631.06
2023-04-11T22:06:05.226Z,99622.14
2023-04-11T22:11:14.385Z,99622.23
2023-04-11T22:16:17.218Z,99622.15
2023-04-11T22:21:20.525Z,99621.35
2023-04-11T22:26:34.693Z,99624.13
2023-04-11T22:31:39.011Z,99623.02
2023-04-11T22:36:42.134Z,99617.91
2023-04-11T22:41:47.895Z,99612.19
2023-04-11T22:47:06.225Z,99612.11
2023-04-11T22:52:14.180Z,99616.50
2023-04-11T22:57:16.987Z,99612.13
2023-04-11T23:02:19.971Z,99610.83
2023-04-11T23:07:25.412Z,99616.21
2023-04-11T23:12:31.985Z,99621.52
2023-04-11T23:17:34.958Z,99618.54
2023-04-11T23:22:37.856Z,99610.13
2023-04-11T23:27:43.621Z,99594.63
2023-04-11T23:32:47.268Z,99584.98
2023-04-11T23:37:51.061Z,99577.27
2023-04-11T23:42:53.968Z,99575.28
2023-04-11T23:47:57.538Z,99565.79
2023-04-11T23:53:00.694Z,99563.51
2023-04-11T23:58:04.323Z,99567.28
